• Join FlightAware (Why Join?)
  • Login
  • US Flag 
12:01AM EDT


 

Airport Tracker/Info


-or-


 

Live Flight TrackerFlight Track Log ✈ N825TD ✈ 25-Feb-2014 ✈ KAPF - KEYW

Flight Track Log - Related Links

Times and Time Zones

All times are in EST time to prevent confusion due to time zone crossing. See the N825TD flight status page for this flight to view local times or setup timezone preferences in your user account.

Time Position Orientation Groundspeed Altitude Reporting Facility
EST Latitude Longitude Course Direction KTS MPH feet Rate Location/Type
11:54AM 25.9081 -81.7731 179° South  Level Estimated
11:55AM 25.8674 -81.7727 179° South  Level Estimated
11:55AM 26.1442 -81.6403 179° South 146 168 7,000  Level Miami Center
11:56AM 25.8267 -81.7723 179° South  Level Estimated
11:56AM 26.1247 -81.5953 116° Southeast 164 189 7,000  Level Miami Center
11:57AM 25.7860 -81.7719 179° South  Level Estimated
11:57AM 26.1036 -81.5436 114° Southeast 164 189 7,000  Level Miami Center
11:58AM 25.7452 -81.7715 179° South  Level Estimated
11:58AM 26.0864 -81.4944 111° Southeast 164 189 7,000  Level Miami Center
11:59AM 25.7045 -81.7711 179° South  Level Estimated
11:59AM 26.0669 -81.4453 114° Southeast 169 194 7,000  Level Miami Center
12:00PM 26.0453 -81.4006 118° Southeast 169 194 7,000  Level Miami Center
12:01PM 26.0258 -81.3533 115° Southeast 169 194 7,000  Level Miami Center
12:02PM 26.0067 -81.3042 113° Southeast 169 194 7,000  Level Miami Center
12:03PM 25.9850 -81.2572 117° Southeast 169 194 7,000 -60 Level Miami Center
12:04PM 25.9525 -81.2236 137° Southeast 162 186 6,900 -60 Descending Miami Center
12:05PM 25.9108 -81.2222 178° South 145 167 6,900  Level Miami Center
12:06PM 25.8628 -81.2203 178° South 159 183 6,900  Level Miami Center
12:07PM 25.8211 -81.2167 176° South 159 183 6,900  Level Miami Center
12:08PM 25.7753 -81.2150 178° South 159 183 6,900  Level Miami Center
12:09PM 25.7294 -81.2086 173° South 159 183 6,900  Level Miami Center
12:10PM 25.6858 -81.2003 170° South 159 183 7,000  Climbing Miami Center
12:11PM 25.6425 -81.1917 170° South 159 183 7,000  Level Miami Center
12:12PM 25.5986 -81.1856 173° South 159 183 7,000 -60 Level Miami Center
12:13PM 25.5592 -81.1819 175° South 164 189 6,900  Descending Miami Center
12:14PM 25.5156 -81.1756 172° South 164 189 7,000  Climbing Miami Center
12:15PM 25.4717 -81.1742 178° South 159 183 7,000 -60 Level Miami Center
12:16PM 25.4278 -81.1703 175° South 159 183 6,900  Descending Miami Center
12:17PM 25.3842 -81.1664 175° South 159 183 7,000  Climbing Miami Center
12:18PM 25.3425 -81.1603 172° South 159 183 7,000 -120 Level Miami Center
12:19PM 25.3008 -81.1567 176° South 159 183 6,800 -1,080 Descending Miami Center
12:20PM 25.2553 -81.1481 170° South 159 183 4,900 -900 Descending Miami Center
12:21PM 25.2136 -81.1419 172° South 159 183 5,000  Climbing Miami Center
12:22PM 25.1719 -81.1383 176° South 159 183 5,000  Level Miami Center
12:23PM 25.1283 -81.1297 170° South 159 183 5,000  Level Miami Center
12:24PM 25.0867 -81.1283 178° South 159 183 5,000  Level Miami Center
12:25PM 25.0428 -81.1269 178° South 159 183 5,000  Level Miami Center
12:26PM 25.0011 -81.1231 175° South 159 183 5,000  Level Miami Center
12:27PM 24.9553 -81.1192 176° South 159 183 5,000  Level Miami Center
12:28PM 24.9136 -81.1133 173° South 159 183 5,000  Level Miami Center
12:29PM 24.8700 -81.1094 175° South 159 183 5,000  Level Miami Center
12:30PM 24.8261 -81.1033 173° South 159 183 5,000  Level Miami Center
12:31PM 24.7825 -81.0994 175° South 159 183 5,000 -60 Level Miami Center
12:32PM 24.7408 -81.0958 175° South 159 183 4,900  Descending Miami Center
12:33PM 24.7050 -81.1106 200° South 154 177 5,000 -240 Climbing Miami Center
12:34PM 24.6972 -81.1561 259° West 130 150 4,500 -480 Descending Miami Center
12:35PM 24.6875 -81.2061 258° West 146 168 4,100 -480 Descending Miami Center
12:36PM 24.6656 -81.2442 238° Southwest 152 175 3,600 -600 Descending Miami Center
12:37PM 24.6350 -81.2842 230° Southwest 162 186 2,900 -600 Descending Miami Center
12:38PM 24.6131 -81.3222 238° Southwest 162 186 2,400 -540 Descending Miami Center
12:39PM 24.5889 -81.3600 235° Southwest 162 186 1,900 -480 Descending Miami Center
12:40PM 24.5647 -81.3981 235° Southwest 162 186 1,500 -180 Descending Miami Center
12:41PM 24.5447 -81.4361 240° Southwest 162 186 1,600  Climbing Miami Center
12:42PM 24.5250 -81.4719 239° Southwest 162 186 1,600  Level Miami Center
12:44PM 24.5386 -81.5353 283° West  Level FlightAware Approximate
12:51PM 24.5500 -81.7500 258° West  Level FlightAware Approximate
12:52PM 24.5561 -81.7596 258° West  Level Estimated
12:53PM 24.5561 -81.7596 258° West  Level Estimated
12:54PM 24.5561 -81.7596 258° West  Level Estimated
12:55PM 24.5561 -81.7596 258° West  Level Estimated
12:56PM 24.5561 -81.7596 258° West  Level Estimated
12:57PM 24.5561 -81.7596 258° West  Level Estimated
12:58PM 24.5561 -81.7596 258° West  Level Estimated
12:59PM 24.5561 -81.7596 258° West  Level Estimated